Terminal Aerodrome Forecast
Issued by NWS

Home | Current Version | Previous Version | Text Only | Print | Product List | Glossary On
Versions: 1 2 3 4 5 6 7 8 9 10 11 12 13 14 15 16 17 18 19 20 21 22 23
000
FTUS43 KGRR 270500
TAFLAN
TAF
KLAN 270540Z 2706/2806 01004KT P6SM -SHSN OVC035
      TEMPO 2706/2710 5SM -SHSN OVC025
     FM271200 32006KT 6SM -SN OVC020
     FM271600 34010KT P6SM VCSH BKN035=

USA.gov is the U.S. government's official web portal to all federal, state and local government web resources and services.